Glen Echo, Maryland
Current Conditions -  °F | °C
As of 7:52 PM on Saturday 25 Oct 2014 (Local Time) from KDCA Reporting Station
Few Clouds Few Clouds  
Wind Chill: 62°   Ceiling: Unl
Heat Index: 62°   Visibility: 10mi
Dew Point: 42°   Wind: 8mph
Humidity: 48%   Direction: 190°S
Pressure: 29.75"   Gusts: NA
Location:  38.97°N, 77.14°W
Report Text: KDCA 252352Z 19007KT 10SM FEW100 17/06 A2975 RMK AO2 SLP073 T01670056 10233 20167 56013
Loading
Personal Weather Stations






























Interactive Weather Map
Tropical Storm Tracking
New forecast layout! Learn more

10-Day Weather Forecast

Advertisements
Track Severe Weather on mobile